Time;durP1;ratioP1;P1;durP2;ratioP2;P2;SDS_P1;SDS_P2;PMS_P1;PMS_P2;Temp;Humidity;BMP_temperature;BMP_pressure;BME280_temperature;BME280_humidity;BME280_pressure;Samples;Min_cycle;Max_cycle;Signal;HPM_P1;HPM_P2
2023/06/10 00:01:18;;;;;;;20.23;10.00;;;;;;;22.28;61.33;101226.50;4984131;28;20049;-68
2023/06/10 00:03:44;;;;;;;19.60;10.27;;;;;;;22.24;62.28;101225.72;4987396;28;20281;-69
2023/06/10 00:06:10;;;;;;;21.10;10.40;;;;;;;22.28;60.72;101221.13;4983019;28;20043;-68
2023/06/10 00:08:37;;;;;;;21.40;10.32;;;;;;;22.16;61.81;101221.56;4986493;28;20034;-69
2023/06/10 00:11:02;;;;;;;19.48;10.10;;;;;;;22.10;62.51;101228.06;4985300;28;20477;-68
2023/06/10 00:13:28;;;;;;;19.70;10.05;;;;;;;22.07;62.92;101229.03;4985339;28;20038;-68
2023/06/10 00:15:53;;;;;;;20.55;9.93;;;;;;;22.08;61.47;101229.94;4986347;28;20041;-68
2023/06/10 00:18:21;;;;;;;19.17;10.40;;;;;;;21.96;61.65;101227.69;4983663;28;20106;-69
2023/06/10 00:20:48;;;;;;;20.02;10.60;;;;;;;21.92;63.42;101224.25;4987060;28;20034;-68
2023/06/10 00:23:14;;;;;;;20.10;10.60;;;;;;;21.91;62.16;101228.75;4980022;28;20058;-69
2023/06/10 00:25:40;;;;;;;20.15;10.45;;;;;;;21.89;61.69;101230.63;4986845;28;20483;-69
2023/06/10 00:28:05;;;;;;;21.33;10.75;;;;;;;21.86;62.29;101230.75;4984394;28;20117;-66
2023/06/10 00:30:31;;;;;;;20.85;10.70;;;;;;;21.71;62.47;101236.66;4985431;28;20039;-68
2023/06/10 00:32:56;;;;;;;20.30;10.68;;;;;;;21.65;63.00;101242.28;4985558;28;20108;-65
2023/06/10 00:35:21;;;;;;;21.70;10.57;;;;;;;21.62;63.37;101232.50;4983925;28;20023;-75
2023/06/10 00:37:47;;;;;;;22.88;11.43;;;;;;;21.55;64.64;101237.22;4986725;28;20034;-69
2023/06/10 00:40:12;;;;;;;21.33;10.95;;;;;;;21.46;63.79;101237.50;4979283;28;20458;-62
2023/06/10 00:42:38;;;;;;;21.02;10.88;;;;;;;21.44;64.20;101247.44;4985989;28;20042;-74
2023/06/10 00:45:03;;;;;;;20.75;10.70;;;;;;;21.42;64.72;101246.59;4984622;28;20113;-74
2023/06/10 00:47:30;;;;;;;22.35;11.48;;;;;;;21.34;64.50;101243.31;4984216;28;20047;-70
2023/06/10 00:49:55;;;;;;;22.05;11.45;;;;;;;21.28;64.87;101241.72;4985376;28;20045;-63
2023/06/10 00:52:22;;;;;;;21.27;11.80;;;;;;;21.25;65.50;101242.69;4983690;28;20027;-71
2023/06/10 00:54:48;;;;;;;20.92;11.43;;;;;;;21.18;67.74;101242.97;4986184;28;20065;-75
2023/06/10 00:57:13;;;;;;;22.63;11.95;;;;;;;21.16;66.25;101240.31;4982987;28;20053;-76
2023/06/10 00:59:40;;;;;;;22.83;12.73;;;;;;;21.12;66.02;101241.34;4985885;28;20038;-71
2023/06/10 01:02:07;;;;;;;21.25;11.98;;;;;;;21.03;67.38;101239.00;4982588;28;20442;-75
2023/06/10 01:04:32;;;;;;;21.30;12.32;;;;;;;20.98;67.09;101233.75;4984840;28;20023;-68
2023/06/10 01:07:21;;;;;;;21.83;11.52;;;;;;;20.96;69.10;101230.22;4984892;28;20117;-75
2023/06/10 01:10:09;;;;;;;21.42;12.13;;;;;;;20.96;67.82;101237.44;4971609;28;20046;-73
2023/06/10 01:12:56;;;;;;;21.08;12.07;;;;;;;20.86;69.16;101240.41;4984164;28;20033;-72
2023/06/10 01:15:22;;;;;;;21.17;11.65;;;;;;;20.78;70.41;101238.88;4980512;28;20030;-75
2023/06/10 01:18:09;;;;;;;22.42;12.63;;;;;;;20.80;67.48;101253.16;4985639;28;20554;-72
2023/06/10 01:20:39;;;;;;;24.60;12.70;;;;;;;20.61;68.98;101247.47;4983762;28;20030;-64
2023/06/10 01:23:05;;;;;;;22.33;13.18;;;;;;;20.46;70.12;101244.31;4983580;28;20392;-71
2023/06/10 01:25:32;;;;;;;21.70;12.95;;;;;;;20.38;70.37;101249.03;4984653;28;20027;-73
2023/06/10 01:28:10;;;;;;;22.63;13.27;;;;;;;20.27;70.88;101241.31;4984329;28;20379;-73
2023/06/10 01:30:53;;;;;;;23.63;13.63;;;;;;;20.23;70.69;101244.09;4984786;28;20058;-75
2023/06/10 01:33:26;;;;;;;21.73;13.48;;;;;;;20.15;71.46;101245.25;4979361;28;20039;-76
2023/06/10 01:35:53;;;;;;;21.15;13.05;;;;;;;20.10;71.95;101244.47;4985214;28;20084;-75
2023/06/10 01:38:20;;;;;;;22.30;13.38;;;;;;;20.03;71.86;101250.94;4982458;28;20034;-75
2023/06/10 01:40:48;;;;;;;21.67;13.68;;;;;;;19.98;72.13;101247.50;4985570;28;20084;-75
2023/06/10 01:43:13;;;;;;;22.75;13.45;;;;;;;19.90;72.88;101244.19;4978492;28;20035;-75
2023/06/10 01:45:38;;;;;;;21.70;13.20;;;;;;;19.79;76.31;101250.72;4985300;28;20035;-69
2023/06/10 01:48:04;;;;;;;22.27;13.00;;;;;;;19.71;75.91;101247.34;4983363;28;20030;-68
2023/06/10 01:50:29;;;;;;;21.60;12.65;;;;;;;19.69;76.66;101247.38;4983736;28;20035;-68
2023/06/10 01:52:57;;;;;;;22.23;13.48;;;;;;;19.57;77.93;101250.41;4983765;28;20026;-69
2023/06/10 01:55:23;;;;;;;23.10;13.15;;;;;;;19.51;79.65;101243.41;4982703;28;20054;-69
2023/06/10 01:57:48;;;;;;;22.27;12.77;;;;;;;19.40;79.32;101250.84;4985111;28;20030;-66
2023/06/10 02:00:14;;;;;;;21.90;12.68;;;;;;;19.41;79.45;101249.94;4981627;28;20085;-69
2023/06/10 02:02:39;;;;;;;22.92;12.50;;;;;;;19.36;80.20;101253.66;4983650;28;20037;-69
2023/06/10 02:05:05;;;;;;;21.92;12.98;;;;;;;19.29;81.50;101250.22;4983071;28;20073;-69
2023/06/10 02:07:30;;;;;;;22.10;12.75;;;;;;;19.22;80.49;101245.94;4983788;28;20031;-69
2023/06/10 02:09:56;;;;;;;22.02;13.40;;;;;;;19.20;81.55;101258.50;4984193;28;20038;-69
2023/06/10 02:12:21;;;;;;;22.80;12.93;;;;;;;19.17;82.81;101259.47;4982196;28;20026;-69
2023/06/10 02:14:46;;;;;;;23.50;14.05;;;;;;;19.12;81.86;101256.91;4985401;28;20030;-69
2023/06/10 02:17:12;;;;;;;22.48;14.02;;;;;;;19.05;82.33;101255.28;4981722;28;20047;-69
2023/06/10 02:19:42;;;;;;;22.60;14.68;;;;;;;18.98;83.21;101253.69;4984564;28;20039;-69
2023/06/10 02:22:08;;;;;;;23.52;14.60;;;;;;;18.95;84.01;101261.78;4983187;28;20038;-69
2023/06/10 02:24:33;;;;;;;22.50;13.80;;;;;;;18.88;84.84;101255.69;4983864;28;20038;-69
2023/06/10 02:27:00;;;;;;;25.52;14.55;;;;;;;18.82;85.86;101262.03;4983595;28;20033;-62
2023/06/10 02:29:25;;;;;;;24.50;14.25;;;;;;;18.79;86.92;101254.06;4982892;28;20035;-64
2023/06/10 02:31:52;;;;;;;23.05;14.55;;;;;;;18.82;88.11;101258.47;4984731;28;20358;-62
2023/06/10 02:34:18;;;;;;;22.90;14.85;;;;;;;18.77;89.63;101258.59;4981887;28;20037;-67
2023/06/10 02:36:44;;;;;;;22.95;14.55;;;;;;;18.79;90.63;101264.78;4985064;28;20030;-69
2023/06/10 02:39:09;;;;;;;23.80;14.85;;;;;;;18.72;91.09;101259.63;4982114;28;20062;-69
2023/06/10 02:41:35;;;;;;;23.00;15.20;;;;;;;18.66;93.12;101262.44;4983897;28;20042;-65
2023/06/10 02:44:00;;;;;;;23.50;14.75;;;;;;;18.63;93.86;101260.72;4983234;28;20038;-68
2023/06/10 02:46:28;;;;;;;23.13;14.52;;;;;;;18.62;92.81;101264.28;4982583;28;20031;-69
2023/06/10 02:48:54;;;;;;;22.52;14.15;;;;;;;18.64;92.99;101265.16;4984445;28;20058;-69
2023/06/10 02:51:20;;;;;;;24.40;14.50;;;;;;;18.62;93.26;101261.63;4981637;28;20430;-68
2023/06/10 02:53:46;;;;;;;23.30;14.57;;;;;;;18.63;94.67;101260.72;4984860;28;20478;-69
2023/06/10 02:56:12;;;;;;;22.80;14.40;;;;;;;18.60;95.18;101255.44;4982025;28;20038;-69
2023/06/10 02:58:38;;;;;;;24.50;15.00;;;;;;;18.54;95.61;101263.59;4983839;28;20038;-59
2023/06/10 03:01:03;;;;;;;22.90;14.60;;;;;;;18.50;96.63;101261.91;4981636;28;20081;-58
2023/06/10 03:03:30;;;;;;;22.33;15.15;;;;;;;18.41;98.11;101263.84;4983018;28;20023;-58
2023/06/10 03:05:56;;;;;;;24.02;15.35;;;;;;;18.39;98.96;101263.03;4983863;28;20376;-60
2023/06/10 03:08:21;;;;;;;23.77;15.02;;;;;;;18.40;99.76;101261.22;4981901;28;20042;-59
2023/06/10 03:10:47;;;;;;;26.33;15.40;;;;;;;18.36;100.00;101260.38;4986977;28;20022;-61
2023/06/10 03:13:14;;;;;;;24.35;15.30;;;;;;;18.33;100.00;101264.94;4985087;28;20062;-74
2023/06/10 03:15:40;;;;;;;23.40;15.68;;;;;;;18.30;100.00;101263.19;4987734;28;20436;-74
2023/06/10 03:18:06;;;;;;;23.02;15.60;;;;;;;18.29;100.00;101266.81;4985959;28;20050;-76
2023/06/10 03:20:36;;;;;;;24.02;15.73;;;;;;;18.33;100.00;101262.25;4985361;28;20386;-72
2023/06/10 03:23:02;;;;;;;24.95;15.50;;;;;;;18.31;100.00;101270.31;4986402;28;20036;-75
2023/06/10 03:25:28;;;;;;;23.92;15.77;;;;;;;18.25;100.00;101268.66;4984851;28;20389;-76
2023/06/10 03:27:53;;;;;;;23.48;15.40;;;;;;;18.21;100.00;101268.75;4987307;28;20030;-74
2023/06/10 03:30:18;;;;;;;25.05;16.05;;;;;;;18.16;100.00;101274.19;4984709;28;20027;-66
2023/06/10 03:32:44;;;;;;;23.17;15.50;;;;;;;18.16;100.00;101278.66;4988068;28;20034;-64
2023/06/10 03:35:09;;;;;;;24.08;15.77;;;;;;;18.05;100.00;101279.75;4985089;28;20038;-60
2023/06/10 03:37:34;;;;;;;24.33;16.17;;;;;;;18.07;100.00;101282.41;4986644;28;20033;-58
2023/06/10 03:40:00;;;;;;;25.83;16.05;;;;;;;18.11;100.00;101285.00;4986680;28;20070;-62
2023/06/10 03:42:25;;;;;;;24.00;15.85;;;;;;;18.04;100.00;101282.47;4985274;28;20026;-67
2023/06/10 03:44:50;;;;;;;25.23;16.80;;;;;;;18.03;100.00;101283.41;4987575;28;20052;-63
2023/06/10 03:47:16;;;;;;;23.88;16.25;;;;;;;18.02;100.00;101293.19;4984323;28;20113;-65
2023/06/10 03:49:41;;;;;;;25.38;16.13;;;;;;;18.05;100.00;101286.91;4987220;28;20027;-64
2023/06/10 03:52:07;;;;;;;25.52;16.77;;;;;;;18.00;100.00;101289.69;4985393;28;20058;-61
2023/06/10 03:54:34;;;;;;;24.05;16.20;;;;;;;18.02;100.00;101290.50;4985845;28;20150;-65
2023/06/10 03:57:00;;;;;;;24.65;16.92;;;;;;;17.97;100.00;101288.84;4986092;28;20081;-64
2023/06/10 03:59:26;;;;;;;24.83;16.83;;;;;;;17.98;100.00;101288.81;4984935;28;20035;-61
2023/06/10 04:01:51;;;;;;;24.45;16.52;;;;;;;17.94;100.00;101289.81;4987441;28;20041;-67
2023/06/10 04:04:17;;;;;;;23.90;16.55;;;;;;;17.94;100.00;101289.81;4984020;28;20466;-70
2023/06/10 04:06:43;;;;;;;25.10;16.85;;;;;;;18.01;100.00;101286.06;4987172;28;20026;-61
2023/06/10 04:09:09;;;;;;;25.33;16.70;;;;;;;17.94;100.00;101297.81;4984720;28;20503;-67
2023/06/10 04:11:35;;;;;;;24.25;16.77;;;;;;;17.92;100.00;101294.28;4985933;28;20062;-65
2023/06/10 04:14:01;;;;;;;25.13;17.23;;;;;;;17.98;100.00;101291.47;4986048;28;20050;-62
2023/06/10 04:16:27;;;;;;;24.02;16.77;;;;;;;17.99;100.00;101295.94;4983292;28;20552;-74
2023/06/10 04:18:52;;;;;;;24.35;17.02;;;;;;;17.95;100.00;101296.88;4986462;28;20047;-63
2023/06/10 04:21:17;;;;;;;25.85;17.85;;;;;;;17.91;100.00;101296.09;4983437;28;20093;-69
2023/06/10 04:23:43;;;;;;;24.77;17.50;;;;;;;17.92;100.00;101296.94;4986396;28;20026;-62
2023/06/10 04:26:08;;;;;;;24.20;17.20;;;;;;;17.86;100.00;101299.72;4984661;28;20062;-69
2023/06/10 04:28:33;;;;;;;25.70;18.00;;;;;;;17.87;100.00;101301.50;4985351;28;20034;-61
2023/06/10 04:30:59;;;;;;;24.95;17.50;;;;;;;17.97;100.00;101305.78;4985486;28;20072;-61
2023/06/10 04:33:24;;;;;;;25.15;16.95;;;;;;;17.99;100.00;101313.78;4984264;28;20433;-64
2023/06/10 04:35:50;;;;;;;24.73;16.98;;;;;;;18.01;100.00;101307.47;4986711;28;20038;-58
2023/06/10 04:38:16;;;;;;;24.95;17.40;;;;;;;18.02;100.00;101314.59;4979440;28;20069;-64
2023/06/10 04:40:41;;;;;;;23.92;16.77;;;;;;;18.07;100.00;101312.72;4986270;28;20054;-62
2023/06/10 04:43:07;;;;;;;25.33;16.55;;;;;;;18.07;100.00;101307.38;4983188;28;20030;-62
2023/06/10 04:45:32;;;;;;;24.27;17.20;;;;;;;18.08;100.00;101306.44;4984762;28;20516;-58
2023/06/10 04:47:58;;;;;;;25.10;18.23;;;;;;;18.09;100.00;101305.53;4985737;28;20034;-61
2023/06/10 04:50:23;;;;;;;25.30;17.83;;;;;;;18.16;100.00;101305.41;4983840;28;20034;-63
2023/06/10 04:52:49;;;;;;;25.58;18.30;;;;;;;18.15;100.00;101314.38;4985309;28;20037;-60
2023/06/10 04:55:15;;;;;;;25.60;18.83;;;;;;;18.23;100.00;101315.06;4983391;28;20482;-62
2023/06/10 04:57:40;;;;;;;25.05;18.13;;;;;;;18.27;100.00;101311.44;4985743;28;20035;-58
2023/06/10 05:00:08;;;;;;;25.63;18.38;;;;;;;18.27;100.00;101309.63;4984115;28;20370;-58
2023/06/10 05:02:33;;;;;;;25.77;18.58;;;;;;;18.29;100.00;101318.53;4985055;28;20081;-61
2023/06/10 05:04:58;;;;;;;25.70;18.25;;;;;;;18.32;100.00;101309.56;4985029;28;20444;-61
2023/06/10 05:07:24;;;;;;;26.65;18.90;;;;;;;18.39;100.00;101316.53;4983210;28;20035;-61
2023/06/10 05:09:49;;;;;;;25.73;19.08;;;;;;;18.43;100.00;101320.03;4986329;28;20164;-58
2023/06/10 05:12:14;;;;;;;26.83;18.77;;;;;;;18.45;100.00;101313.72;4981582;28;20034;-59
2023/06/10 05:14:41;;;;;;;26.85;19.13;;;;;;;18.51;100.00;101325.19;4985881;28;20061;-67
2023/06/10 05:17:06;;;;;;;25.85;18.15;;;;;;;18.57;100.00;101320.63;4983439;28;20053;-61
2023/06/10 05:19:32;;;;;;;25.63;17.27;;;;;;;18.59;100.00;101317.91;4984108;28;20035;-65
2023/06/10 05:21:57;;;;;;;25.08;16.20;;;;;;;18.66;100.00;101310.63;4985063;28;20031;-58
2023/06/10 05:24:23;;;;;;;23.88;15.30;;;;;;;18.67;100.00;101313.28;4981724;28;20071;-58
2023/06/10 05:26:48;;;;;;;24.25;14.82;;;;;;;18.76;100.00;101313.06;4985739;28;20036;-58
2023/06/10 05:29:15;;;;;;;24.00;15.18;;;;;;;18.82;100.00;101315.59;4982803;28;20039;-60
2023/06/10 05:31:41;;;;;;;24.23;14.48;;;;;;;18.87;100.00;101322.69;4985076;28;20022;-60
2023/06/10 05:34:06;;;;;;;25.02;15.07;;;;;;;18.91;100.00;101316.34;4983452;28;20448;-64
2023/06/10 05:36:32;;;;;;;25.65;15.45;;;;;;;18.99;100.00;101322.41;4984048;28;20413;-73
2023/06/10 05:38:58;;;;;;;23.85;15.15;;;;;;;19.01;100.00;101312.53;4983341;28;20074;-58
2023/06/10 05:41:23;;;;;;;24.95;15.25;;;;;;;19.06;100.00;101316.00;4982636;28;20023;-64
2023/06/10 05:43:48;;;;;;;23.98;14.43;;;;;;;19.14;100.00;101326.53;4985877;28;20030;-66
2023/06/10 05:46:14;;;;;;;24.65;15.50;;;;;;;19.19;100.00;101315.69;4982346;28;20027;-60
2023/06/10 05:48:40;;;;;;;24.83;14.57;;;;;;;19.29;100.00;101325.28;4984817;28;20045;-70
2023/06/10 05:51:05;;;;;;;25.05;15.05;;;;;;;19.36;100.00;101320.66;4983731;28;20109;-66
2023/06/10 05:53:31;;;;;;;23.45;14.55;;;;;;;19.44;100.00;101322.22;4983647;28;20038;-65
2023/06/10 05:55:57;;;;;;;25.13;14.45;;;;;;;19.49;100.00;101322.09;4984822;28;20026;-58
2023/06/10 05:58:23;;;;;;;24.67;14.40;;;;;;;19.52;100.00;101330.94;4982244;28;20093;-60
2023/06/10 06:00:49;;;;;;;25.35;14.77;;;;;;;19.55;100.00;101331.78;4985334;28;20030;-74
2023/06/10 06:03:14;;;;;;;26.10;14.85;;;;;;;19.61;95.86;101323.59;4982332;28;20039;-72
2023/06/10 06:05:40;;;;;;;24.90;14.35;;;;;;;19.65;96.77;101325.28;4984668;28;20034;-67
2023/06/10 06:08:05;;;;;;;23.52;14.45;;;;;;;19.67;97.16;101323.41;4983444;28;20030;-58
2023/06/10 06:10:31;;;;;;;26.58;15.07;;;;;;;19.74;95.68;101333.06;4983375;28;20063;-68
2023/06/10 06:12:56;;;;;;;25.05;14.57;;;;;;;19.77;97.69;101330.31;4984495;28;20026;-75
2023/06/10 06:15:22;;;;;;;24.23;14.07;;;;;;;19.84;93.75;101329.25;4981917;28;20027;-58
2023/06/10 06:17:47;;;;;;;24.23;14.50;;;;;;;19.92;94.14;101320.13;4985124;28;20073;-64
2023/06/10 06:20:13;;;;;;;24.05;14.35;;;;;;;19.98;92.06;101328.00;4982278;28;20047;-68
2023/06/10 06:22:38;;;;;;;25.23;14.23;;;;;;;20.04;91.38;101327.84;4984138;28;20556;-65
2023/06/10 06:25:04;;;;;;;24.23;14.38;;;;;;;20.16;91.96;101321.25;4982661;28;20041;-66
2023/06/10 06:27:29;;;;;;;24.67;13.82;;;;;;;20.23;91.13;101330.00;4982911;28;20544;-61
2023/06/10 06:29:55;;;;;;;24.50;14.57;;;;;;;20.27;87.24;101329.91;4984576;28;20058;-65
2023/06/10 06:32:22;;;;;;;23.73;13.10;;;;;;;20.38;87.46;101340.31;4981882;28;20023;-78
2023/06/10 06:34:49;;;;;;;24.30;13.68;;;;;;;20.44;84.72;101334.75;4984906;28;20053;-78
2023/06/10 06:37:14;;;;;;;37.50;14.68;;;;;;;20.52;85.28;101332.72;4981830;28;20462;-77
2023/06/10 06:39:40;;;;;;;23.38;13.73;;;;;;;20.57;85.28;101339.78;4984180;28;20031;-79
2023/06/10 06:42:06;;;;;;;24.48;13.57;;;;;;;20.66;85.34;101343.13;4983062;28;20085;-79
2023/06/10 06:44:31;;;;;;;23.98;13.18;;;;;;;20.75;83.20;101336.59;4983387;28;20027;-79
2023/06/10 06:46:56;;;;;;;23.17;12.85;;;;;;;20.83;83.89;101341.72;4988033;28;20065;-73
2023/06/10 06:49:22;;;;;;;24.02;13.38;;;;;;;20.92;83.57;101340.56;4985308;28;20422;-79
2023/06/10 06:51:47;;;;;;;23.85;12.55;;;;;;;20.97;82.36;101339.47;4988849;28;20038;-79
2023/06/10 06:54:12;;;;;;;23.27;12.32;;;;;;;21.04;78.57;101340.16;4985713;28;20027;-75
2023/06/10 06:56:38;;;;;;;22.83;12.18;;;;;;;21.11;77.58;101339.03;4987397;28;20117;-79
2023/06/10 06:59:04;;;;;;;22.77;11.70;;;;;;;21.20;76.88;101344.13;4987135;28;20385;-76
2023/06/10 07:01:29;;;;;;;23.10;12.15;;;;;;;21.28;77.28;101353.75;4986182;28;20035;-78
2023/06/10 07:03:55;;;;;;;22.88;11.98;;;;;;;21.35;74.71;101347.25;4987953;28;20042;-78
2023/06/10 07:06:20;;;;;;;21.73;11.48;;;;;;;21.43;75.72;101345.16;4985174;28;20034;-76
2023/06/10 07:08:46;;;;;;;22.00;11.63;;;;;;;21.54;74.40;101348.41;4988198;28;20030;-79
2023/06/10 07:11:11;;;;;;;24.30;11.75;;;;;;;21.63;72.49;101354.44;4985697;28;20470;-79
2023/06/10 07:13:36;;;;;;;22.08;11.25;;;;;;;21.71;73.48;101350.56;4987170;28;20070;-78
2023/06/10 07:16:02;;;;;;;22.73;11.60;;;;;;;21.84;71.46;101358.19;4986746;28;20026;-61
2023/06/10 07:18:27;;;;;;;22.10;11.25;;;;;;;21.96;72.83;101356.88;4985514;28;20091;-64
2023/06/10 07:20:52;;;;;;;22.58;11.77;;;;;;;22.05;70.60;101357.44;4987906;28;20081;-69
2023/06/10 07:23:18;;;;;;;24.27;11.43;;;;;;;22.18;70.30;101367.75;4984637;28;20500;-66
2023/06/10 07:25:43;;;;;;;24.70;12.02;;;;;;;22.24;68.49;101357.66;4987807;28;20054;-69
2023/06/10 07:28:08;;;;;;;23.40;11.70;;;;;;;22.34;68.25;101360.03;4985666;28;20037;-63
2023/06/10 07:30:34;;;;;;;23.45;10.93;;;;;;;22.44;68.06;101356.06;4986362;28;20490;-68
2023/06/10 07:32:59;;;;;;;21.25;10.70;;;;;;;22.51;66.50;101357.59;4987056;28;20092;-67
2023/06/10 07:35:25;;;;;;;22.42;11.13;;;;;;;22.61;67.05;101359.00;4984989;28;20106;-65
2023/06/10 07:37:50;;;;;;;23.58;10.05;;;;;;;22.70;63.88;101354.19;4988046;28;20053;-68
2023/06/10 07:40:16;;;;;;;25.48;10.50;;;;;;;22.78;64.74;101365.56;4983481;28;20425;-69
2023/06/10 07:42:41;;;;;;;22.58;11.00;;;;;;;22.86;64.41;101362.56;4986959;28;20038;-69
2023/06/10 07:45:07;;;;;;;22.67;10.77;;;;;;;23.00;65.43;101360.22;4985717;28;20037;-66
2023/06/10 07:47:33;;;;;;;21.15;9.80;;;;;;;23.18;65.96;101360.44;4985958;28;20470;-64
2023/06/10 07:49:59;;;;;;;21.88;9.30;;;;;;;23.36;62.00;101357.00;4986657;28;20038;-66
2023/06/10 07:52:25;;;;;;;21.38;9.50;;;;;;;23.39;59.69;101366.81;4983332;28;20038;-63
2023/06/10 07:54:51;;;;;;;20.60;9.35;;;;;;;23.40;58.99;101373.94;4988030;28;20578;-67
2023/06/10 07:57:16;;;;;;;20.67;9.90;;;;;;;23.50;59.54;101365.41;4983274;28;20118;-64
2023/06/10 07:59:44;;;;;;;21.27;9.32;;;;;;;23.62;60.20;101373.91;4986272;28;20396;-64
2023/06/10 08:02:09;;;;;;;21.40;9.50;;;;;;;23.79;59.32;101363.28;4984398;28;20070;-63
2023/06/10 08:04:35;;;;;;;21.33;9.40;;;;;;;23.98;58.85;101368.81;4987079;28;20062;-64
2023/06/10 08:07:00;;;;;;;20.27;8.95;;;;;;;24.17;57.17;101373.38;4973059;28;20031;-74
2023/06/10 08:09:26;;;;;;;19.85;8.63;;;;;;;24.17;54.95;101366.19;4982255;28;20377;-70
2023/06/10 08:11:51;;;;;;;22.33;9.18;;;;;;;24.33;57.06;101369.06;4978509;28;20370;-62
2023/06/10 08:14:17;;;;;;;20.58;9.63;;;;;;;24.52;57.23;101365.50;4978485;28;20104;-63
2023/06/10 08:16:43;;;;;;;19.90;8.57;;;;;;;24.66;55.02;101368.50;4981781;28;20049;-72
2023/06/10 08:19:09;;;;;;;22.83;9.50;;;;;;;24.82;55.71;101356.97;4977100;28;20051;-66
2023/06/10 08:21:36;;;;;;;21.35;8.68;;;;;;;24.89;54.27;101363.84;4977560;28;20061;-64
2023/06/10 08:24:01;;;;;;;21.00;8.77;;;;;;;25.00;54.50;101363.31;4982149;28;20046;-78
2023/06/10 08:26:27;;;;;;;21.80;9.00;;;;;;;25.03;51.95;101366.75;4979937;28;20039;-78
2023/06/10 08:28:52;;;;;;;20.10;8.70;;;;;;;25.14;52.07;101363.53;4979175;28;20054;-78
2023/06/10 08:31:17;;;;;;;20.98;8.82;;;;;;;25.30;51.80;101369.06;4977883;28;20066;-76
2023/06/10 08:33:43;;;;;;;19.60;8.48;;;;;;;25.45;52.35;101366.56;4980874;28;20034;-75
2023/06/10 08:36:08;;;;;;;20.95;8.45;;;;;;;25.57;52.45;101357.81;4977884;28;20130;-83
2023/06/10 08:38:34;;;;;;;21.23;8.35;;;;;;;25.60;50.74;101363.13;4979769;28;20134;-75
2023/06/10 08:41:01;;;;;;;20.15;8.43;;;;;;;25.70;50.73;101367.09;4983299;28;20045;-67
2023/06/10 08:43:36;;;;;;;20.15;8.55;;;;;;;25.85;50.61;101369.97;4977630;28;20065;-69
2023/06/10 08:46:04;;;;;;;19.83;8.45;;;;;;;25.98;49.23;101371.09;4970828;28;20042;-67
2023/06/10 08:48:31;;;;;;;20.77;8.25;;;;;;;26.19;50.68;101377.22;4978603;28;20037;-69
2023/06/10 08:50:57;;;;;;;21.15;8.52;;;;;;;26.31;47.99;101372.97;4980970;28;20027;-64
2023/06/10 08:53:23;;;;;;;19.20;8.00;;;;;;;26.46;47.87;101374.00;4973174;28;20088;-66
2023/06/10 08:55:54;;;;;;;21.13;8.00;;;;;;;26.59;47.88;101371.47;4973094;28;20462;-66
2023/06/10 08:58:20;;;;;;;20.55;8.38;;;;;;;26.62;45.88;101371.34;4976533;28;20489;-65
2023/06/10 09:00:46;;;;;;;20.92;8.13;;;;;;;26.79;47.48;101365.88;4975506;28;20114;-71
2023/06/10 09:03:12;;;;;;;20.42;7.60;;;;;;;26.99;46.65;101369.31;4981486;28;20064;-66
2023/06/10 09:05:37;;;;;;;20.50;8.10;;;;;;;27.05;46.21;101362.66;4980180;28;20193;-61
2023/06/10 09:08:05;;;;;;;19.92;7.70;;;;;;;27.17;46.60;101358.38;4973955;28;20474;-63
2023/06/10 09:10:32;;;;;;;20.13;7.80;;;;;;;27.21;45.42;101363.53;4978034;28;20018;-63
2023/06/10 09:12:57;;;;;;;20.50;7.82;;;;;;;27.30;44.96;101365.72;4975921;28;20399;-62
2023/06/10 09:15:22;;;;;;;19.83;8.13;;;;;;;27.50;43.97;101363.69;4979997;28;20153;-67
2023/06/10 09:17:48;;;;;;;20.55;7.88;;;;;;;27.47;44.13;101358.47;4976449;28;20104;-65
2023/06/10 09:20:13;;;;;;;21.88;8.38;;;;;;;27.56;44.64;101357.91;4981443;28;20486;-68
2023/06/10 09:22:40;;;;;;;19.30;7.90;;;;;;;27.72;44.06;101367.84;4975285;28;20101;-69
2023/06/10 09:25:10;;;;;;;20.17;8.32;;;;;;;27.76;42.91;101362.16;4976776;28;20563;-70
2023/06/10 09:27:50;;;;;;;19.35;7.55;;;;;;;28.06;44.01;101366.72;4974158;28;20057;-68
2023/06/10 09:30:29;;;;;;;19.42;8.00;;;;;;;28.29;42.94;101369.84;4975723;28;20038;-65
2023/06/10 09:32:56;;;;;;;19.88;7.78;;;;;;;28.53;42.66;101362.88;4976943;28;20039;-61
2023/06/10 09:35:23;;;;;;;20.35;8.05;;;;;;;28.64;41.82;101366.78;4978100;28;20031;-65
2023/06/10 09:37:53;;;;;;;18.77;7.63;;;;;;;28.66;40.70;101364.88;4973045;28;20050;-61
2023/06/10 09:40:19;;;;;;;18.77;7.60;;;;;;;28.76;40.32;101370.56;4978931;28;20031;-69
2023/06/10 09:42:44;;;;;;;20.13;7.50;;;;;;;28.97;40.79;101357.44;4974990;28;20034;-64
2023/06/10 09:45:10;;;;;;;18.88;7.53;;;;;;;29.07;40.94;101358.56;4977934;28;20061;-61
2023/06/10 09:47:35;;;;;;;19.42;7.57;;;;;;;29.10;39.87;101350.19;4977769;28;20070;-79
2023/06/10 09:50:01;;;;;;;18.85;7.78;;;;;;;29.32;39.63;101355.13;4977765;28;20392;-70
2023/06/10 09:52:29;;;;;;;18.83;7.43;;;;;;;29.43;39.15;101359.84;4977898;28;20039;-66
2023/06/10 09:55:00;;;;;;;19.67;7.30;;;;;;;29.63;39.40;101353.03;4978470;28;20029;-63
2023/06/10 09:57:25;;;;;;;19.67;7.33;;;;;;;29.72;38.42;101355.16;4976897;28;20035;-76
2023/06/10 09:59:54;;;;;;;19.05;6.85;;;;;;;30.02;38.18;101355.88;4973221;28;20630;-75
2023/06/10 10:02:20;;;;;;;21.80;7.97;;;;;;;30.31;36.73;101355.69;4981878;28;20102;-70
2023/06/10 10:04:45;;;;;;;17.75;6.97;;;;;;;31.11;35.95;101349.91;4978725;28;20110;-81
2023/06/10 10:07:11;;;;;;;19.15;7.30;;;;;;;32.78;33.35;101351.53;4977265;28;20101;-75
2023/06/10 10:09:37;;;;;;;19.45;7.40;;;;;;;34.01;31.47;101348.53;4975551;28;20045;-72
2023/06/10 10:12:10;;;;;;;18.92;7.47;;;;;;;35.18;30.25;101350.91;4977724;28;20459;-72
2023/06/10 10:14:36;;;;;;;18.75;7.00;;;;;;;36.25;29.48;101357.44;4974431;28;20070;-67
2023/06/10 10:17:04;;;;;;;20.30;7.13;;;;;;;36.91;27.76;101347.34;4978352;28;20086;-75
2023/06/10 10:19:32;;;;;;;19.42;7.53;;;;;;;37.15;26.68;101343.97;4976175;28;20109;-79
2023/06/10 10:22:18;;;;;;;19.85;7.50;;;;;;;37.47;27.42;101348.09;4984239;28;20030;-80
2023/06/10 10:24:53;;;;;;;19.35;7.45;;;;;;;37.78;26.81;101348.59;4978644;28;20481;-73
2023/06/10 10:27:26;;;;;;;17.65;6.80;;;;;;;38.19;25.71;101345.25;4985120;28;20035;-63
2023/06/10 10:29:53;;;;;;;18.38;6.93;;;;;;;38.66;25.07;101338.47;4987216;28;20034;-79
2023/06/10 10:32:26;;;;;;;19.60;7.10;;;;;;;38.96;24.62;101347.22;4985561;28;20030;-81
2023/06/10 10:35:07;;;;;;;18.38;6.88;;;;;;;39.60;25.05;101343.91;4988960;28;20022;-73
2023/06/10 10:37:33;;;;;;;17.65;6.80;;;;;;;39.70;23.27;101341.81;4987185;28;20034;-76
2023/06/10 10:40:00;;;;;;;18.25;6.70;;;;;;;39.86;23.60;101346.47;4987994;28;20038;-70
2023/06/10 10:42:26;;;;;;;17.95;6.65;;;;;;;40.31;23.23;101347.84;4986198;28;20030;-78
2023/06/10 10:44:53;;;;;;;18.00;6.72;;;;;;;40.37;22.38;101343.47;4988597;28;20481;-80
2023/06/10 10:47:21;;;;;;;18.23;6.60;;;;;;;40.54;22.27;101347.94;4985905;28;20382;-63
2023/06/10 10:49:50;;;;;;;17.13;6.57;;;;;;;40.34;22.70;101343.81;4988772;28;20028;-80
2023/06/10 10:52:16;;;;;;;17.63;6.43;;;;;;;40.91;22.05;101331.72;4985373;28;20050;-80
2023/06/10 10:54:46;;;;;;;16.88;6.50;;;;;;;41.15;20.98;101336.22;4988443;28;20034;-66
2023/06/10 10:57:12;;;;;;;17.85;6.97;;;;;;;41.20;20.62;101331.00;4986103;28;20456;-66
2023/06/10 10:59:45;;;;;;;15.73;6.22;;;;;;;41.34;21.35;101336.81;4986025;28;20042;-78
2023/06/10 11:02:10;;;;;;;18.15;6.72;;;;;;;41.68;20.68;101324.41;4986134;28;20462;-76
2023/06/10 11:04:36;;;;;;;17.70;6.60;;;;;;;42.07;20.44;101326.97;4987267;28;20113;-75
2023/06/10 11:07:08;;;;;;;17.63;6.90;;;;;;;41.74;20.90;101330.06;4987052;28;20030;-80